Time;durP1;ratioP1;P1;durP2;ratioP2;P2;SDS_P1;SDS_P2;PMS_P1;PMS_P2;Temp;Humidity;BMP_temperature;BMP_pressure;BME280_temperature;BME280_humidity;BME280_pressure;Samples;Min_cycle;Max_cycle;Signal;HPM_P1;HPM_P2
2022/03/23 06:00:37;;;;;;;24.03;21.50;;;6.00;97.20;;;;;;1707705;29;20319;-73
2022/03/23 06:01:28;;;;;;;23.77;21.27;;;6.00;97.20;;;;;;1707961;29;20207;-73
2022/03/23 06:02:19;;;;;;;22.57;20.37;;;6.00;97.20;;;;;;1707670;28;20704;-74
2022/03/23 06:03:10;;;;;;;24.45;21.85;;;6.00;97.20;;;;;;1707904;29;20242;-73
2022/03/23 06:04:02;;;;;;;22.67;20.37;;;6.00;97.20;;;;;;1707797;29;20230;-73
2022/03/23 06:04:53;;;;;;;23.10;20.80;;;6.00;97.20;;;;;;1703703;29;20451;-72
2022/03/23 06:05:45;;;;;;;34.80;20.17;;;6.10;97.20;;;;;;1701222;29;20719;-73
2022/03/23 06:06:35;;;;;;;22.42;20.02;;;6.10;97.20;;;;;;1701233;29;20223;-73
2022/03/23 06:07:27;;;;;;;24.10;20.47;;;6.10;97.20;;;;;;1701256;29;20203;-73
2022/03/23 06:08:18;;;;;;;22.25;19.95;;;6.10;97.20;;;;;;1701021;29;20457;-72
2022/03/23 06:09:10;;;;;;;22.30;19.57;;;6.10;97.20;;;;;;1701358;29;20209;-72
2022/03/23 06:10:02;;;;;;;25.05;21.45;;;6.10;97.20;;;;;;1701246;29;20214;-72
2022/03/23 06:10:53;;;;;;;23.92;21.40;;;6.10;97.20;;;;;;1701227;29;20290;-73
2022/03/23 06:11:44;;;;;;;25.40;21.60;;;6.10;97.20;;;;;;1701240;29;20214;-72
2022/03/23 06:12:36;;;;;;;22.77;20.37;;;6.10;97.20;;;;;;1701346;29;20202;-72
2022/03/23 06:13:27;;;;;;;22.45;20.20;;;6.10;97.20;;;;;;1701118;29;20231;-72
2022/03/23 06:14:19;;;;;;;23.23;20.83;;;6.20;97.20;;;;;;1701360;29;20203;-71
2022/03/23 06:15:11;;;;;;;22.70;20.35;;;6.10;97.20;;;;;;1701355;29;20678;-72
2022/03/23 06:16:05;;;;;;;27.75;21.70;;;6.10;97.20;;;;;;1702021;29;20202;-72
2022/03/23 06:16:55;;;;;;;22.70;20.23;;;6.10;97.20;;;;;;1706871;29;20625;-73
2022/03/23 06:17:47;;;;;;;25.20;22.50;;;6.10;97.20;;;;;;1707399;29;20198;-73
2022/03/23 06:18:38;;;;;;;24.45;20.45;;;6.10;97.20;;;;;;1707101;29;20221;-73
2022/03/23 06:19:31;;;;;;;23.38;20.27;;;6.10;97.20;;;;;;1707502;29;20205;-73
2022/03/23 06:20:21;;;;;;;23.90;21.52;;;6.10;97.20;;;;;;1707769;28;20211;-73
2022/03/23 06:21:15;;;;;;;24.00;21.50;;;6.20;97.20;;;;;;1707729;29;20215;-73
2022/03/23 06:22:06;;;;;;;23.40;20.95;;;6.20;97.20;;;;;;1707736;28;20673;-72
2022/03/23 06:22:57;;;;;;;22.60;20.45;;;6.20;97.20;;;;;;1707881;28;20938;-73
2022/03/23 06:23:48;;;;;;;23.40;20.90;;;6.20;97.20;;;;;;1706674;28;20229;-71
2022/03/23 06:24:40;;;;;;;23.10;20.70;;;6.20;97.20;;;;;;1707794;29;20221;-72
2022/03/23 06:25:31;;;;;;;24.80;20.42;;;6.30;97.20;;;;;;1707688;29;20248;-72
2022/03/23 06:26:23;;;;;;;23.80;21.33;;;6.30;97.20;;;;;;1707692;29;20788;-71
2022/03/23 06:27:13;;;;;;;26.45;21.10;;;6.30;97.20;;;;;;1707743;29;20450;-72
2022/03/23 06:28:05;;;;;;;25.03;22.27;;;6.30;97.20;;;;;;1707464;29;20202;-72
2022/03/23 06:28:56;;;;;;;24.30;21.35;;;6.30;97.20;;;;;;1707761;29;20447;-72
2022/03/23 06:29:48;;;;;;;24.23;21.77;;;6.30;97.20;;;;;;1707561;29;20203;-72
2022/03/23 06:30:38;;;;;;;24.92;22.40;;;6.30;97.20;;;;;;1707759;29;20593;-72
2022/03/23 06:31:32;;;;;;;24.57;22.00;;;6.30;97.20;;;;;;1706448;29;20571;-71
2022/03/23 06:32:22;;;;;;;23.38;21.02;;;6.40;97.20;;;;;;1707587;29;20648;-70
2022/03/23 06:33:14;;;;;;;23.20;20.80;;;6.40;97.20;;;;;;1707439;29;20237;-70
2022/03/23 06:34:05;;;;;;;24.02;21.42;;;6.40;97.20;;;;;;1700864;29;20637;-71
2022/03/23 06:34:57;;;;;;;22.50;20.30;;;6.50;97.20;;;;;;1701042;29;20558;-70
2022/03/23 06:35:48;;;;;;;26.13;22.42;;;6.50;97.20;;;;;;1700891;29;20206;-70
2022/03/23 06:36:39;;;;;;;23.90;21.38;;;6.60;97.20;;;;;;1700984;29;20290;-71
2022/03/23 06:37:30;;;;;;;23.55;21.05;;;6.70;97.20;;;;;;1700964;29;20211;-70
2022/03/23 06:38:22;;;;;;;24.30;21.90;;;6.70;97.20;;;;;;1700652;29;20198;-70
2022/03/23 06:39:13;;;;;;;24.58;21.48;;;6.80;97.20;;;;;;1700792;29;20451;-71
2022/03/23 06:40:06;;;;;;;24.03;21.63;;;6.80;97.20;;;;;;1700900;29;20207;-71
2022/03/23 06:40:57;;;;;;;23.85;21.05;;;6.90;97.20;;;;;;1700976;29;20218;-71
2022/03/23 06:41:49;;;;;;;22.73;20.40;;;6.90;97.20;;;;;;1699555;28;20214;-71
2022/03/23 06:42:39;;;;;;;23.98;21.35;;;7.00;97.20;;;;;;1706016;29;20663;-71
2022/03/23 06:43:31;;;;;;;24.23;21.70;;;7.10;97.20;;;;;;1706946;28;20746;-70
2022/03/23 06:44:22;;;;;;;23.30;20.90;;;7.10;97.20;;;;;;1707865;28;20256;-70
2022/03/23 06:45:14;;;;;;;23.83;21.50;;;7.20;97.20;;;;;;1711795;28;20198;-70
2022/03/23 06:46:05;;;;;;;23.85;21.38;;;7.20;97.20;;;;;;1713697;28;20255;-71
2022/03/23 06:46:58;;;;;;;22.60;20.40;;;7.30;97.20;;;;;;1712103;28;20287;-70
2022/03/23 06:47:48;;;;;;;22.08;19.98;;;7.30;97.20;;;;;;1707001;29;20507;-71
2022/03/23 06:48:40;;;;;;;22.90;20.20;;;7.40;97.20;;;;;;1700646;29;20213;-71
2022/03/23 06:49:31;;;;;;;24.27;21.77;;;7.40;97.20;;;;;;1700880;29;20207;-71
2022/03/23 06:50:23;;;;;;;22.90;20.60;;;7.50;97.20;;;;;;1700769;29;20199;-71
2022/03/23 06:51:14;;;;;;;23.90;21.40;;;7.50;97.20;;;;;;1700906;29;20928;-71
2022/03/23 06:52:07;;;;;;;23.67;21.15;;;7.60;97.20;;;;;;1700514;29;20207;-70
2022/03/23 06:52:57;;;;;;;23.60;21.30;;;7.70;97.20;;;;;;1700674;29;20242;-71
2022/03/23 06:53:49;;;;;;;24.43;21.73;;;7.80;97.20;;;;;;1700761;29;20223;-71
2022/03/23 06:54:40;;;;;;;23.98;21.55;;;7.80;97.20;;;;;;1700785;29;20235;-70
2022/03/23 06:55:32;;;;;;;24.83;21.23;;;7.80;97.20;;;;;;1700913;29;20207;-70
2022/03/23 06:56:22;;;;;;;22.75;20.45;;;7.80;97.20;;;;;;1700868;29;20246;-71
2022/03/23 06:57:14;;;;;;;23.13;20.50;;;7.90;97.20;;;;;;1700819;29;20210;-71
2022/03/23 06:58:05;;;;;;;23.98;20.98;;;7.90;97.20;;;;;;1700419;29;20246;-71
2022/03/23 06:58:57;;;;;;;23.67;21.33;;;7.90;97.20;;;;;;1700824;29;20206;-70
2022/03/23 06:59:48;;;;;;;23.58;21.08;;;7.90;97.20;;;;;;1700778;29;20230;-71
2022/03/23 07:00:40;;;;;;;24.33;21.80;;;8.00;97.20;;;;;;1706191;28;20210;-70
2022/03/23 07:01:30;;;;;;;24.35;21.75;;;8.00;97.20;;;;;;1707445;28;20203;-70
2022/03/23 07:02:24;;;;;;;23.40;21.00;;;8.00;97.20;;;;;;1707451;29;20202;-71
2022/03/23 07:03:14;;;;;;;25.95;21.05;;;8.00;97.20;;;;;;1707420;28;20477;-71
2022/03/23 07:04:06;;;;;;;24.57;22.00;;;8.10;97.20;;;;;;1707408;28;20226;-71
2022/03/23 07:04:57;;;;;;;23.75;21.35;;;8.10;97.20;;;;;;1707385;29;20233;-70
2022/03/23 07:05:48;;;;;;;23.50;21.07;;;8.10;97.20;;;;;;1707307;29;20198;-70
2022/03/23 07:06:40;;;;;;;22.77;20.45;;;8.20;97.20;;;;;;1707362;29;20241;-70
2022/03/23 07:07:32;;;;;;;22.38;20.08;;;8.20;97.20;;;;;;1707350;29;20264;-71
2022/03/23 07:09:32;;;;;;;22.70;19.92;;;8.40;97.20;;;;;;1707512;29;20646;-71
2022/03/23 07:10:23;;;;;;;23.97;21.57;;;8.40;97.20;;;;;;1707325;28;20276;-71
2022/03/23 07:11:15;;;;;;;23.43;21.03;;;8.50;97.20;;;;;;1707351;29;20210;-70
2022/03/23 07:12:08;;;;;;;22.48;20.08;;;8.50;97.20;;;;;;1707270;29;20259;-71
2022/03/23 07:12:59;;;;;;;24.58;21.98;;;8.60;97.20;;;;;;1707341;28;20270;-70
2022/03/23 07:13:50;;;;;;;26.33;20.83;;;8.70;97.20;;;;;;1707242;29;20264;-71
2022/03/23 07:14:42;;;;;;;23.70;20.67;;;8.80;97.20;;;;;;1707176;28;20206;-71
2022/03/23 07:15:33;;;;;;;23.42;20.95;;;8.80;97.20;;;;;;1706793;28;20210;-71
2022/03/23 07:16:25;;;;;;;23.13;20.73;;;8.90;97.20;;;;;;1707309;29;20205;-70
2022/03/23 07:17:16;;;;;;;24.13;21.58;;;8.90;97.20;;;;;;1707281;29;20214;-70
2022/03/23 07:18:10;;;;;;;24.25;21.02;;;9.00;97.20;;;;;;1706972;29;20588;-71
2022/03/23 07:19:01;;;;;;;23.15;20.30;;;9.10;97.20;;;;;;1707374;28;20368;-70
2022/03/23 07:19:52;;;;;;;25.60;21.97;;;9.10;97.20;;;;;;1702962;29;20271;-70
2022/03/23 07:20:43;;;;;;;24.00;20.90;;;9.20;97.20;;;;;;1700717;29;20443;-69
2022/03/23 07:21:35;;;;;;;24.00;21.50;;;9.20;97.20;;;;;;1700865;29;20206;-70
2022/03/23 07:22:25;;;;;;;23.02;20.67;;;9.20;97.20;;;;;;1700658;29;20211;-70
2022/03/23 07:23:17;;;;;;;24.43;21.70;;;9.30;97.20;;;;;;1700683;29;20203;-70
2022/03/23 07:24:08;;;;;;;23.95;21.38;;;9.30;97.20;;;;;;1704049;29;20574;-69
2022/03/23 07:25:00;;;;;;;24.80;21.07;;;9.30;97.20;;;;;;1707343;29;20567;-70
2022/03/23 07:25:51;;;;;;;24.55;20.30;;;9.40;97.20;;;;;;1707180;29;20233;-70
2022/03/23 07:26:42;;;;;;;24.40;20.03;;;9.40;97.20;;;;;;1707201;29;20230;-72
2022/03/23 07:27:33;;;;;;;27.40;21.55;;;9.50;97.20;;;;;;1707309;29;20209;-72
2022/03/23 07:28:25;;;;;;;25.20;20.93;;;9.60;97.20;;;;;;1706932;29;20206;-70
2022/03/23 07:29:16;;;;;;;31.63;21.25;;;9.60;97.20;;;;;;1707228;29;20234;-70
2022/03/23 07:30:09;;;;;;;24.57;20.67;;;9.70;97.20;;;;;;1706864;28;20210;-71
2022/03/23 07:31:00;;;;;;;26.65;21.20;;;9.80;97.20;;;;;;1706965;29;20218;-70
2022/03/23 07:31:52;;;;;;;22.90;20.50;;;9.90;97.20;;;;;;1707161;28;20207;-70
2022/03/23 07:32:42;;;;;;;27.40;21.08;;;9.90;97.20;;;;;;1707224;29;20528;-71
2022/03/23 07:33:36;;;;;;;25.17;22.57;;;10.00;97.20;;;;;;1707200;28;20203;-70
2022/03/23 07:34:27;;;;;;;28.42;21.15;;;10.00;97.20;;;;;;1707083;29;20211;-70
2022/03/23 07:35:19;;;;;;;29.73;21.33;;;10.10;97.20;;;;;;1707291;28;20613;-70
2022/03/23 07:36:12;;;;;;;29.75;22.45;;;10.10;97.20;;;;;;1707050;28;20238;-70
2022/03/23 07:37:04;;;;;;;24.42;20.90;;;10.20;97.20;;;;;;1706614;29;20662;-70
2022/03/23 07:37:54;;;;;;;30.40;22.15;;;10.20;97.20;;;;;;1706761;29;20230;-70
2022/03/23 07:38:46;;;;;;;25.57;21.47;;;10.30;97.20;;;;;;1706353;29;20213;-73
2022/03/23 07:39:37;;;;;;;29.05;21.48;;;10.40;97.20;;;;;;1706539;29;20718;-70
2022/03/23 07:40:29;;;;;;;27.77;22.57;;;10.40;97.20;;;;;;1706632;29;20579;-70
2022/03/23 07:41:20;;;;;;;28.27;21.45;;;10.40;97.20;;;;;;1706998;29;20474;-70
2022/03/23 07:42:12;;;;;;;27.08;21.75;;;10.50;97.20;;;;;;1707124;29;20290;-70
2022/03/23 07:43:04;;;;;;;24.88;21.95;;;10.50;97.20;;;;;;1707038;29;20261;-71
2022/03/23 07:43:56;;;;;;;27.15;22.20;;;10.60;97.20;;;;;;1706871;28;20712;-70
2022/03/23 07:44:46;;;;;;;25.67;22.00;;;10.60;97.20;;;;;;1707144;29;20249;-70
2022/03/23 07:45:38;;;;;;;27.20;22.63;;;10.70;97.20;;;;;;1707257;29;20202;-71
2022/03/23 07:46:30;;;;;;;26.00;22.05;;;10.70;97.20;;;;;;1707095;29;20449;-70
2022/03/23 07:47:22;;;;;;;25.95;21.73;;;10.80;97.20;;;;;;1707252;29;20230;-71
2022/03/23 07:48:13;;;;;;;25.33;22.67;;;10.80;97.20;;;;;;1706605;29;20209;-71
2022/03/23 07:49:06;;;;;;;25.57;23.00;;;10.90;97.20;;;;;;1707121;29;20210;-70
2022/03/23 07:49:57;;;;;;;25.42;22.55;;;10.90;97.20;;;;;;1707233;29;20210;-70
2022/03/23 07:50:48;;;;;;;25.33;22.63;;;11.00;97.20;;;;;;1707234;28;20207;-70
2022/03/23 07:51:39;;;;;;;27.98;22.80;;;11.00;97.20;;;;;;1707195;28;20300;-70
2022/03/23 07:52:31;;;;;;;25.30;22.20;;;11.00;97.20;;;;;;1707330;29;20210;-73
2022/03/23 07:53:22;;;;;;;27.02;23.35;;;11.10;97.20;;;;;;1707150;29;20564;-71
2022/03/23 07:54:13;;;;;;;27.03;21.87;;;11.10;97.20;;;;;;1707129;28;20313;-70
2022/03/23 07:55:05;;;;;;;25.50;21.98;;;11.10;97.20;;;;;;1707156;29;20666;-70
2022/03/23 07:55:57;;;;;;;25.42;22.52;;;11.20;97.20;;;;;;1707218;28;20202;-70
2022/03/23 07:56:48;;;;;;;25.48;22.77;;;11.20;97.20;;;;;;1707167;29;20203;-70
2022/03/23 07:57:39;;;;;;;24.73;22.30;;;11.20;97.20;;;;;;1707203;28;20258;-70
2022/03/23 07:58:30;;;;;;;25.48;21.27;;;11.20;97.10;;;;;;1706837;29;20657;-70
2022/03/23 07:59:22;;;;;;;32.03;23.30;;;11.30;97.20;;;;;;1707146;29;20587;-71
2022/03/23 08:00:13;;;;;;;29.95;21.73;;;11.30;97.20;;;;;;1707114;29;20234;-70
2022/03/23 08:01:05;;;;;;;25.65;22.98;;;11.40;97.20;;;;;;1707150;29;20548;-70
2022/03/23 08:01:56;;;;;;;25.85;22.00;;;11.50;97.20;;;;;;1707182;29;20234;-70
2022/03/23 08:02:48;;;;;;;27.40;22.10;;;11.60;97.20;;;;;;1707077;29;20199;-70
2022/03/23 08:03:39;;;;;;;24.75;22.15;;;11.70;97.20;;;;;;1707161;29;20837;-70
2022/03/23 08:04:32;;;;;;;29.33;22.23;;;11.80;97.10;;;;;;1706486;29;20198;-68
2022/03/23 08:05:24;;;;;;;27.20;22.95;;;11.90;96.90;;;;;;1706988;28;20662;-69
2022/03/23 08:06:15;;;;;;;24.65;21.65;;;12.00;96.70;;;;;;1707155;29;20202;-70
2022/03/23 08:07:07;;;;;;;24.40;21.00;;;12.10;96.50;;;;;;1706990;29;20234;-71
2022/03/23 08:07:58;;;;;;;26.52;21.30;;;12.20;96.40;;;;;;1707262;29;20238;-70
2022/03/23 08:08:50;;;;;;;22.90;20.65;;;12.30;96.30;;;;;;1706803;29;20700;-70
2022/03/23 08:09:41;;;;;;;28.15;21.10;;;12.40;96.30;;;;;;1707161;28;20677;-70
2022/03/23 08:10:33;;;;;;;25.47;22.37;;;12.60;96.20;;;;;;1707138;28;20599;-70
2022/03/23 08:11:23;;;;;;;25.35;21.77;;;12.70;96.30;;;;;;1707061;29;20734;-69
2022/03/23 08:12:16;;;;;;;25.60;20.33;;;12.80;96.10;;;;;;1707160;28;20646;-69
2022/03/23 08:13:09;;;;;;;26.60;20.75;;;12.90;95.80;;;;;;1707051;29;20580;-70
2022/03/23 08:14:00;;;;;;;30.35;23.30;;;13.00;95.50;;;;;;1706903;28;20230;-70
2022/03/23 08:14:51;;;;;;;24.45;21.85;;;13.10;95.40;;;;;;1707158;29;20230;-70
2022/03/23 08:15:43;;;;;;;46.43;22.37;;;13.20;95.50;;;;;;1702336;28;20191;-69
2022/03/23 08:16:33;;;;;;;26.33;22.05;;;13.30;95.30;;;;;;1700588;29;20239;-70
2022/03/23 08:17:25;;;;;;;30.13;21.10;;;13.40;95.60;;;;;;1700538;29;20199;-70
2022/03/23 08:18:21;;;;;;;23.60;21.08;;;13.50;95.60;;;;;;1700195;29;20234;-70
2022/03/23 08:19:12;;;;;;;25.77;21.90;;;13.50;95.40;;;;;;1700595;29;20682;-70
2022/03/23 08:21:17;;;;;;;24.75;22.00;;;13.70;94.30;;;;;;1706979;29;20268;-70
2022/03/23 08:22:09;;;;;;;25.83;21.55;;;13.80;93.70;;;;;;1707075;28;20206;-70
2022/03/23 08:23:01;;;;;;;37.65;23.92;;;13.90;93.40;;;;;;1707109;29;20585;-70
2022/03/23 08:23:51;;;;;;;28.42;21.98;;;14.00;93.00;;;;;;1706734;28;20284;-69
2022/03/23 08:24:43;;;;;;;21.63;19.37;;;14.00;92.60;;;;;;1707107;29;20210;-69
2022/03/23 08:25:37;;;;;;;23.20;20.73;;;14.10;91.10;;;;;;1706454;29;20198;-70
2022/03/23 08:26:29;;;;;;;26.55;21.23;;;14.10;91.10;;;;;;1707009;29;20226;-70
2022/03/23 08:27:20;;;;;;;25.75;21.70;;;14.20;91.60;;;;;;1707026;29;20701;-70
2022/03/23 08:28:14;;;;;;;25.50;22.67;;;14.30;92.10;;;;;;1706744;29;20573;-70
2022/03/23 08:29:05;;;;;;;29.27;21.02;;;14.30;92.50;;;;;;1705415;29;20205;-70
2022/03/23 08:29:57;;;;;;;25.80;20.00;;;14.50;92.50;;;;;;1707084;29;20566;-70
2022/03/23 08:30:48;;;;;;;22.88;20.05;;;14.60;92.50;;;;;;1707068;29;20246;-70
2022/03/23 08:31:40;;;;;;;25.13;21.23;;;14.70;92.30;;;;;;1707150;29;20202;-70
2022/03/23 08:32:31;;;;;;;23.33;20.38;;;14.80;92.00;;;;;;1707097;29;20230;-70
2022/03/23 08:33:25;;;;;;;26.73;21.03;;;14.90;91.40;;;;;;1706951;28;20218;-70
2022/03/23 08:34:16;;;;;;;23.80;20.35;;;15.00;90.50;;;;;;1707167;28;20211;-70
2022/03/23 08:35:09;;;;;;;22.67;20.27;;;15.00;89.80;;;;;;1707068;28;20207;-70
2022/03/23 08:36:02;;;;;;;22.00;19.70;;;15.10;89.60;;;;;;1707101;29;20483;-70
2022/03/23 08:36:52;;;;;;;21.83;19.58;;;15.20;89.30;;;;;;1705214;28;20207;-70
2022/03/23 08:37:44;;;;;;;23.93;20.03;;;15.30;89.20;;;;;;1707123;29;20222;-71
2022/03/23 08:38:36;;;;;;;23.50;20.25;;;15.40;89.10;;;;;;1706435;29;20214;-70
2022/03/23 08:39:28;;;;;;;26.83;20.20;;;15.50;88.70;;;;;;1706970;29;20203;-70
2022/03/23 08:40:19;;;;;;;22.85;20.25;;;15.60;88.20;;;;;;1707063;29;20202;-70
2022/03/23 08:41:12;;;;;;;23.67;21.10;;;15.70;87.90;;;;;;1705299;28;20646;-71
2022/03/23 08:42:03;;;;;;;25.48;18.42;;;15.80;87.50;;;;;;1706907;29;20210;-71
2022/03/23 08:42:57;;;;;;;23.13;20.30;;;15.90;87.40;;;;;;1707125;29;20261;-71
2022/03/23 08:43:48;;;;;;;27.05;19.95;;;16.00;87.10;;;;;;1705678;29;20227;-72
2022/03/23 08:44:41;;;;;;;25.63;19.97;;;16.10;86.50;;;;;;1700486;29;20725;-71
2022/03/23 08:45:32;;;;;;;28.15;20.73;;;16.10;86.00;;;;;;1700480;29;20214;-71
2022/03/23 08:46:24;;;;;;;23.00;20.60;;;16.20;85.90;;;;;;1700449;29;20206;-71
2022/03/23 08:47:16;;;;;;;24.88;20.08;;;16.30;85.90;;;;;;1701342;29;20455;-71
2022/03/23 08:48:09;;;;;;;27.13;20.35;;;16.40;85.90;;;;;;1701321;29;20266;-71
2022/03/23 08:49:00;;;;;;;28.55;21.50;;;16.50;85.60;;;;;;1705072;28;20206;-71
2022/03/23 08:49:51;;;;;;;26.13;19.77;;;16.50;84.80;;;;;;1708027;28;20654;-70
2022/03/23 08:50:43;;;;;;;24.35;20.20;;;16.60;84.50;;;;;;1712324;28;20261;-70
2022/03/23 08:51:35;;;;;;;23.52;20.02;;;16.70;84.10;;;;;;1714900;28;20770;-71
2022/03/23 08:52:29;;;;;;;25.48;21.35;;;16.80;83.90;;;;;;1708778;28;20231;-71
2022/03/23 08:53:20;;;;;;;24.77;20.35;;;16.80;83.80;;;;;;1708172;28;20655;-71
2022/03/23 08:54:11;;;;;;;25.35;20.25;;;16.90;83.70;;;;;;1708260;28;20207;-71
2022/03/23 08:55:04;;;;;;;29.57;20.33;;;17.00;83.70;;;;;;1708179;29;20198;-71
2022/03/23 08:55:56;;;;;;;29.25;20.63;;;17.10;83.20;;;;;;1707661;29;20234;-71
2022/03/23 08:56:46;;;;;;;24.35;20.30;;;17.20;83.20;;;;;;1708104;29;20214;-72
2022/03/23 08:57:38;;;;;;;25.70;20.40;;;17.30;83.10;;;;;;1708329;28;20285;-68
2022/03/23 08:58:30;;;;;;;29.20;20.10;;;17.40;82.90;;;;;;1707849;29;20297;-68
2022/03/23 08:59:21;;;;;;;26.48;20.80;;;17.50;81.90;;;;;;1707416;28;20241;-69
2022/03/23 09:00:13;;;;;;;27.10;20.63;;;17.50;81.70;;;;;;1707955;28;20210;-69
2022/03/23 09:01:04;;;;;;;26.17;20.00;;;17.60;81.50;;;;;;1708130;29;20206;-69
2022/03/23 09:01:56;;;;;;;23.57;21.07;;;17.70;80.80;;;;;;1708285;28;20206;-70
2022/03/23 09:02:46;;;;;;;23.67;19.17;;;17.90;80.20;;;;;;1708156;29;20238;-70
2022/03/23 09:03:38;;;;;;;24.07;21.27;;;18.30;80.00;;;;;;1707788;29;20226;-70
2022/03/23 09:04:29;;;;;;;24.25;18.80;;;19.10;78.20;;;;;;1705788;29;20254;-70
2022/03/23 09:05:21;;;;;;;23.40;19.50;;;20.00;76.90;;;;;;1708121;28;20191;-70
2022/03/23 09:06:13;;;;;;;25.50;18.85;;;20.50;76.10;;;;;;1708202;29;20714;-69
2022/03/23 09:07:05;;;;;;;21.83;19.50;;;21.10;75.50;;;;;;1708151;29;20218;-69
2022/03/23 09:07:56;;;;;;;21.10;17.75;;;22.20;74.10;;;;;;1708116;29;20223;-70
2022/03/23 09:08:48;;;;;;;19.30;17.50;;;23.50;72.00;;;;;;1707819;29;20285;-69
2022/03/23 09:09:38;;;;;;;20.30;18.30;;;24.90;68.70;;;;;;1706669;28;20229;-69
2022/03/23 09:10:30;;;;;;;26.93;17.10;;;26.30;66.40;;;;;;1707867;28;20228;-69
2022/03/23 09:11:22;;;;;;;19.35;17.45;;;27.60;64.80;;;;;;1708255;28;20541;-69
2022/03/23 09:12:14;;;;;;;21.83;17.55;;;29.00;62.70;;;;;;1707883;28;20206;-70
2022/03/23 09:13:06;;;;;;;21.67;17.15;;;30.30;60.90;;;;;;1708096;29;20218;-71
2022/03/23 09:13:57;;;;;;;18.48;16.58;;;31.50;59.20;;;;;;1707812;29;20744;-70
2022/03/23 09:14:49;;;;;;;19.60;17.60;;;32.70;57.60;;;;;;1708029;29;20206;-70
2022/03/23 09:15:39;;;;;;;20.13;18.25;;;33.70;55.90;;;;;;1701437;29;20227;-70
2022/03/23 09:16:31;;;;;;;18.47;16.60;;;34.50;54.70;;;;;;1701531;29;20199;-69
2022/03/23 09:17:22;;;;;;;18.90;17.13;;;35.40;53.90;;;;;;1701534;29;20749;-70
2022/03/23 09:18:14;;;;;;;19.75;16.33;;;36.20;52.90;;;;;;1701245;29;20257;-70
2022/03/23 09:19:05;;;;;;;15.02;13.45;;;36.90;51.70;;;;;;1701328;29;20207;-70
2022/03/23 09:19:57;;;;;;;14.27;13.00;;;37.60;50.00;;;;;;1706762;28;20249;-70
2022/03/23 09:20:48;;;;;;;14.00;12.75;;;38.20;48.60;;;;;;1708160;29;20226;-70
2022/03/23 09:21:41;;;;;;;14.37;13.17;;;38.70;46.80;;;;;;1708231;28;20200;-71
2022/03/23 09:22:34;;;;;;;16.63;15.15;;;39.30;46.30;;;;;;1707991;29;20207;-70
2022/03/23 09:23:26;;;;;;;16.52;15.02;;;39.80;46.20;;;;;;1707992;29;20210;-70
2022/03/23 09:24:19;;;;;;;14.65;13.45;;;40.20;46.10;;;;;;1708077;29;20237;-70
2022/03/23 09:25:12;;;;;;;15.00;13.80;;;40.70;45.80;;;;;;1708050;29;20226;-70
2022/03/23 09:26:03;;;;;;;14.13;12.93;;;41.20;45.40;;;;;;1708110;28;20238;-70
2022/03/23 09:26:55;;;;;;;13.37;12.17;;;41.60;44.10;;;;;;1708070;29;20206;-70
2022/03/23 09:27:46;;;;;;;15.18;13.88;;;42.00;44.00;;;;;;1708037;28;20450;-70
2022/03/23 09:28:38;;;;;;;14.20;12.73;;;42.40;43.70;;;;;;1705977;29;20317;-70
2022/03/23 09:29:29;;;;;;;14.97;13.57;;;42.90;43.10;;;;;;1703532;28;20346;-70
2022/03/23 09:30:22;;;;;;;14.47;13.07;;;43.30;42.30;;;;;;1707769;28;20454;-70
2022/03/23 09:31:13;;;;;;;14.87;13.53;;;43.60;41.90;;;;;;1707936;29;20838;-70
2022/03/23 09:32:09;;;;;;;14.57;13.37;;;43.90;41.50;;;;;;1707875;29;20472;-70
2022/03/23 09:33:01;;;;;;;14.67;13.23;;;44.20;41.60;;;;;;1708100;28;20458;-70
2022/03/23 09:33:54;;;;;;;14.87;13.67;;;44.60;41.60;;;;;;1707859;29;20760;-69
2022/03/23 09:34:46;;;;;;;15.27;13.97;;;44.90;41.30;;;;;;1708001;29;20453;-70
2022/03/23 09:35:37;;;;;;;14.43;13.23;;;45.20;41.20;;;;;;1708059;29;20961;-70
2022/03/23 09:37:49;;;;;;;16.07;14.67;;;45.80;40.60;;;;;;1701550;29;20728;-70
2022/03/23 09:38:40;;;;;;;15.77;14.37;;;46.10;40.50;;;;;;1701059;29;20998;-70
2022/03/23 09:39:31;;;;;;;14.80;13.47;;;46.40;40.30;;;;;;1702665;28;21022;-70
2022/03/23 09:40:25;;;;;;;15.40;14.10;;;46.70;40.30;;;;;;1707618;28;20242;-70
2022/03/23 09:41:17;;;;;;;15.87;14.43;;;46.90;39.80;;;;;;1708024;28;20504;-70
2022/03/23 09:42:09;;;;;;;15.17;13.67;;;47.10;39.80;;;;;;1707908;29;20449;-70
2022/03/23 09:43:02;;;;;;;14.47;13.37;;;47.40;39.70;;;;;;1707976;29;20477;-70
2022/03/23 09:43:54;;;;;;;15.07;13.83;;;47.60;39.40;;;;;;1707578;29;20466;-71
2022/03/23 09:44:45;;;;;;;16.63;15.23;;;47.80;39.20;;;;;;1707832;29;20503;-70
2022/03/23 09:45:47;;;;;;;14.83;13.63;;;48.00;38.90;;;;;;1707593;29;20445;-71
2022/03/23 09:46:38;;;;;;;14.40;13.10;;;48.30;38.50;;;;;;1707989;28;20446;-71
2022/03/23 09:47:30;;;;;;;13.90;12.80;;;48.50;38.10;;;;;;1707852;29;20446;-70
2022/03/23 09:48:24;;;;;;;14.53;13.33;;;48.70;37.70;;;;;;1707451;29;20493;-70
2022/03/23 09:49:15;;;;;;;13.03;11.93;;;48.90;37.60;;;;;;1707215;28;20458;-71
2022/03/23 09:50:09;;;;;;;13.37;12.03;;;49.10;37.40;;;;;;1707758;28;20457;-70
2022/03/23 09:51:01;;;;;;;13.73;12.47;;;49.30;37.00;;;;;;1705893;29;20453;-71
2022/03/23 09:51:53;;;;;;;13.37;12.37;;;49.40;37.20;;;;;;1701672;29;20447;-71
2022/03/23 09:52:47;;;;;;;14.00;12.80;;;49.60;37.00;;;;;;1701280;29;20498;-70
2022/03/23 09:53:40;;;;;;;14.90;13.67;;;49.80;36.80;;;;;;1701591;29;20494;-70
2022/03/23 09:54:32;;;;;;;12.80;11.70;;;50.00;36.70;;;;;;1701566;28;20454;-70
2022/03/23 09:55:23;;;;;;;13.40;12.23;;;50.10;36.60;;;;;;1706561;29;20511;-74
2022/03/23 09:56:15;;;;;;;11.93;11.03;;;50.20;36.20;;;;;;1707383;28;20529;-73
2022/03/23 09:57:06;;;;;;;13.70;12.33;;;50.20;35.60;;;;;;1707006;28;20537;-72
2022/03/23 09:57:59;;;;;;;11.60;10.80;;;50.30;35.50;;;;;;1706914;28;20458;-71
2022/03/23 09:58:50;;;;;;;12.20;11.30;;;50.40;35.30;;;;;;1706177;29;20206;-72
2022/03/23 09:59:43;;;;;;;12.50;11.60;;;50.50;35.10;;;;;;1706617;29;20434;-72
2022/03/23 10:00:34;;;;;;;12.13;11.23;;;50.60;35.20;;;;;;1706534;29;20475;-72
2022/03/23 10:02:12;;;;;;;12.63;11.43;;;50.80;35.10;;;;;;1706904;29;20889;-71
2022/03/23 10:03:40;;;;;;;11.67;10.87;;;50.90;33.90;;;;;;1706031;29;20465;-71
2022/03/23 10:05:11;;;;;;;11.57;10.70;;;51.20;34.10;;;;;;1707107;29;20461;-72
2022/03/23 10:06:28;;;;;;;11.40;10.50;;;51.30;33.40;;;;;;1707115;29;20832;-71
2022/03/23 10:07:26;;;;;;;11.87;10.77;;;51.40;34.20;;;;;;1707139;28;20457;-71
2022/03/23 10:08:57;;;;;;;11.13;10.30;;;51.60;34.80;;;;;;1707267;29;20517;-71
2022/03/23 10:10:58;;;;;;;10.90;9.83;;;51.80;34.40;;;;;;1704011;29;20457;-71
2022/03/23 10:12:35;;;;;;;12.73;11.60;;;52.10;34.30;;;;;;1707779;29;20454;-71
2022/03/23 10:14:19;;;;;;;11.30;10.40;;;52.50;34.10;;;;;;1707508;28;20485;-71
2022/03/23 10:15:47;;;;;;;11.20;10.40;;;52.70;33.80;;;;;;1707565;29;20825;-71
2022/03/23 10:17:08;;;;;;;12.70;11.50;;;52.90;33.20;;;;;;1707745;29;20459;-71
2022/03/23 10:18:35;;;;;;;11.40;10.50;;;53.10;33.30;;;;;;1701092;29;20455;-71
2022/03/23 10:19:26;;;;;;;11.97;11.00;;;53.10;32.70;;;;;;1701004;29;20510;-71
2022/03/23 10:20:17;;;;;;;11.57;10.50;;;53.20;34.00;;;;;;1701208;29;20541;-71
2022/03/23 10:21:09;;;;;;;11.43;10.43;;;53.30;33.80;;;;;;1701026;29;20451;-71
2022/03/23 10:22:08;;;;;;;12.98;11.95;;;53.50;33.60;;;;;;1705751;29;20456;-73
2022/03/23 10:22:59;;;;;;;13.57;12.10;;;53.60;33.30;;;;;;1708542;28;20202;-80
2022/03/23 10:23:53;;;;;;;13.00;11.90;;;53.70;33.20;;;;;;1707500;29;20462;-75
2022/03/23 10:24:44;;;;;;;12.60;11.50;;;53.80;33.10;;;;;;1705166;29;20249;-71
2022/03/23 10:25:40;;;;;;;13.40;12.23;;;53.80;33.20;;;;;;1707686;29;20446;-75
2022/03/23 10:26:33;;;;;;;13.60;12.37;;;53.90;33.20;;;;;;1706008;28;20450;-72
2022/03/23 10:27:31;;;;;;;11.50;10.70;;;54.00;33.20;;;;;;1707537;29;20476;-73
2022/03/23 10:28:23;;;;;;;12.80;11.70;;;54.00;33.00;;;;;;1707273;28;20482;-73
2022/03/23 10:29:19;;;;;;;12.93;11.80;;;54.10;33.10;;;;;;1707544;29;20885;-75
2022/03/23 10:30:14;;;;;;;12.87;11.97;;;54.10;32.80;;;;;;1706961;29;20446;-76
2022/03/23 10:31:15;;;;;;;11.57;10.67;;;54.20;32.70;;;;;;1706302;28;20485;-73
2022/03/23 10:32:09;;;;;;;11.60;10.70;;;54.20;32.10;;;;;;1707555;29;20450;-73
2022/03/23 10:33:01;;;;;;;13.57;12.47;;;54.30;32.70;;;;;;1707577;28;20478;-74
2022/03/23 10:33:56;;;;;;;13.10;11.97;;;54.30;32.60;;;;;;1707573;29;20496;-73
2022/03/23 10:34:50;;;;;;;14.47;12.90;;;54.30;32.10;;;;;;1707549;29;20489;-74
2022/03/23 10:35:41;;;;;;;13.63;12.63;;;54.20;32.30;;;;;;1703232;28;20442;-73